Time;durP1;ratioP1;P1;durP2;ratioP2;P2;SDS_P1;SDS_P2;PMS_P1;PMS_P2;Temp;Humidity;BMP_temperature;BMP_pressure;BME280_temperature;BME280_humidity;BME280_pressure;Samples;Min_cycle;Max_cycle;Signal;HPM_P1;HPM_P2
2022/11/15 00:01:39;;;;;;;30.05;12.82;;;7.90;99.90;;;;;;5091311;28;20020;-68
2022/11/15 00:04:05;;;;;;;30.63;12.63;;;8.00;99.90;;;;;;5095083;28;20027;-69
2022/11/15 00:06:30;;;;;;;24.90;11.18;;;8.00;99.90;;;;;;5095403;28;20070;-69
2022/11/15 00:08:58;;;;;;;29.52;13.30;;;8.00;99.90;;;;;;5069555;28;20029;-69
2022/11/15 00:11:24;;;;;;;28.10;13.45;;;8.00;99.90;;;;;;5071156;28;20094;-69
2022/11/15 00:13:50;;;;;;;31.00;14.45;;;8.00;99.90;;;;;;5071066;28;20036;-68
2022/11/15 00:16:16;;;;;;;30.58;14.00;;;8.00;99.90;;;;;;5070666;28;20035;-69
2022/11/15 00:18:41;;;;;;;32.03;14.55;;;8.10;99.90;;;;;;5071722;28;20064;-68
2022/11/15 00:21:10;;;;;;;27.45;13.15;;;8.10;99.90;;;;;;5071069;28;20372;-68
2022/11/15 00:23:37;;;;;;;29.38;14.05;;;8.10;99.90;;;;;;5069229;28;20032;-69
2022/11/15 00:26:03;;;;;;;27.00;13.80;;;8.10;99.90;;;;;;5071267;28;20098;-69
2022/11/15 00:28:29;;;;;;;29.60;14.00;;;8.10;99.90;;;;;;5069493;28;20055;-68
2022/11/15 00:31:01;;;;;;;34.90;15.55;;;8.20;99.90;;;;;;5070837;28;20032;-68
2022/11/15 00:33:26;;;;;;;34.03;15.40;;;8.20;99.90;;;;;;5070895;28;20533;-68
2022/11/15 00:35:52;;;;;;;31.88;16.13;;;8.20;99.90;;;;;;5070787;28;20099;-66
2022/11/15 00:38:18;;;;;;;30.92;14.95;;;8.10;99.90;;;;;;5070255;28;20025;-68
2022/11/15 00:40:43;;;;;;;39.72;15.98;;;8.20;99.90;;;;;;5071130;28;20090;-68
2022/11/15 00:43:09;;;;;;;35.13;15.93;;;8.20;99.90;;;;;;5070463;28;20059;-68
2022/11/15 00:45:34;;;;;;;33.33;15.45;;;8.20;99.90;;;;;;5069537;28;20086;-67
2022/11/15 00:48:00;;;;;;;29.20;13.68;;;8.20;99.90;;;;;;5071019;28;20561;-68
2022/11/15 00:50:25;;;;;;;28.55;12.93;;;8.20;99.90;;;;;;5070332;28;20143;-68
2022/11/15 00:52:51;;;;;;;27.73;13.20;;;8.20;99.90;;;;;;5070587;28;20037;-68
2022/11/15 00:55:18;;;;;;;30.60;13.40;;;8.30;99.90;;;;;;5070950;28;20060;-68
2022/11/15 00:57:44;;;;;;;31.52;14.63;;;8.30;99.90;;;;;;5070142;28;20021;-67
2022/11/15 01:00:11;;;;;;;36.50;15.93;;;8.30;99.90;;;;;;5070446;28;20414;-69
2022/11/15 01:02:36;;;;;;;28.23;14.23;;;8.30;99.90;;;;;;5070843;28;20074;-69
2022/11/15 01:05:02;;;;;;;34.15;16.73;;;8.30;99.90;;;;;;5070149;28;20025;-68
2022/11/15 01:07:28;;;;;;;30.73;15.18;;;8.30;99.90;;;;;;5069141;28;20021;-69
2022/11/15 01:09:53;;;;;;;26.38;12.70;;;8.40;99.90;;;;;;5069280;28;20089;-68
2022/11/15 01:12:19;;;;;;;27.45;13.50;;;8.40;99.90;;;;;;5069653;28;20041;-69
2022/11/15 01:14:44;;;;;;;29.05;13.63;;;8.40;99.90;;;;;;5069554;28;20017;-67
2022/11/15 01:17:10;;;;;;;25.45;12.82;;;8.40;99.90;;;;;;5070334;28;20471;-68
2022/11/15 01:19:36;;;;;;;23.35;12.60;;;8.40;99.90;;;;;;5070120;28;20381;-68
2022/11/15 01:22:01;;;;;;;26.70;13.90;;;8.40;99.90;;;;;;5070599;28;20029;-68
2022/11/15 01:24:27;;;;;;;25.67;12.02;;;8.40;99.90;;;;;;5070257;28;20090;-68
2022/11/15 01:26:52;;;;;;;28.15;12.77;;;8.40;99.90;;;;;;5070016;28;20087;-68
2022/11/15 01:29:18;;;;;;;29.98;14.32;;;8.50;99.90;;;;;;5070309;28;20032;-68
2022/11/15 01:31:43;;;;;;;29.30;14.40;;;8.50;99.90;;;;;;5069254;28;20021;-67
2022/11/15 01:34:09;;;;;;;32.67;14.15;;;8.50;99.90;;;;;;5069614;28;20035;-69
2022/11/15 01:36:35;;;;;;;30.65;13.63;;;8.50;99.90;;;;;;5070793;28;20021;-69
2022/11/15 01:39:00;;;;;;;29.95;15.32;;;8.50;99.90;;;;;;5073307;28;20039;-70
2022/11/15 01:41:30;;;;;;;29.67;14.25;;;8.50;99.90;;;;;;5089623;28;20080;-68
2022/11/15 01:44:18;;;;;;;25.45;12.88;;;8.50;99.90;;;;;;5086617;28;20020;-68
2022/11/15 01:46:47;;;;;;;21.48;11.23;;;8.50;99.90;;;;;;5069993;28;20024;-67
2022/11/15 01:49:17;;;;;;;28.23;12.73;;;8.50;99.90;;;;;;5070018;28;20576;-68
2022/11/15 01:51:43;;;;;;;22.75;12.35;;;8.60;99.90;;;;;;5079826;28;20472;-67
2022/11/15 01:54:12;;;;;;;30.35;14.23;;;8.60;99.90;;;;;;5089738;28;20032;-69
2022/11/15 01:56:45;;;;;;;27.58;14.57;;;8.60;99.90;;;;;;5090772;28;20062;-69
2022/11/15 01:59:11;;;;;;;26.25;13.55;;;8.60;99.90;;;;;;5090135;28;20020;-69
2022/11/15 02:01:37;;;;;;;26.08;13.40;;;8.60;99.90;;;;;;5085378;28;20065;-69
2022/11/15 02:04:31;;;;;;;29.70;13.38;;;8.70;99.90;;;;;;5090362;28;20021;-69
2022/11/15 02:06:57;;;;;;;23.05;12.10;;;8.70;99.90;;;;;;5089140;28;20499;-69
2022/11/15 02:09:23;;;;;;;30.25;14.57;;;8.70;99.90;;;;;;5078657;28;20029;-69
2022/11/15 02:11:50;;;;;;;25.38;14.10;;;8.80;99.90;;;;;;5074772;28;20020;-67
2022/11/15 02:14:19;;;;;;;31.95;15.57;;;8.80;99.90;;;;;;5090004;28;20042;-69
2022/11/15 02:16:54;;;;;;;31.42;17.08;;;8.80;99.90;;;;;;5088748;28;20039;-69
2022/11/15 02:19:32;;;;;;;36.67;17.40;;;8.80;99.90;;;;;;5090410;28;20458;-69
2022/11/15 02:22:06;;;;;;;31.38;15.50;;;8.90;99.90;;;;;;5085689;28;20036;-69
2022/11/15 02:24:59;;;;;;;35.28;18.67;;;8.90;99.90;;;;;;5072612;28;20043;-69
2022/11/15 02:27:47;;;;;;;31.08;16.13;;;8.90;99.90;;;;;;5073051;28;20052;-69
2022/11/15 02:30:20;;;;;;;34.25;16.60;;;9.00;99.90;;;;;;5071461;28;20016;-69
2022/11/15 02:33:08;;;;;;;34.25;16.95;;;9.00;99.90;;;;;;5078934;28;20036;-69
2022/11/15 02:35:52;;;;;;;37.05;17.65;;;9.00;99.90;;;;;;5093802;28;20055;-69
2022/11/15 02:38:30;;;;;;;30.55;15.57;;;9.00;99.90;;;;;;5093438;28;20066;-69
2022/11/15 02:41:02;;;;;;;27.42;15.00;;;9.00;99.90;;;;;;5093375;28;20115;-69
2022/11/15 02:43:58;;;;;;;26.98;15.60;;;9.00;99.90;;;;;;5091386;28;20097;-68
2022/11/15 02:47:12;;;;;;;30.05;15.50;;;9.10;99.90;;;;;;5082923;28;20024;-68
2022/11/15 02:49:14;;;;;;;29.05;15.02;;;9.10;99.90;;;;;;5079283;28;20149;-68
2022/11/15 02:51:42;;;;;;;33.45;17.05;;;9.10;99.90;;;;;;5091841;28;20428;-69
2022/11/15 02:54:13;;;;;;;28.85;15.63;;;9.10;99.90;;;;;;5091929;28;20027;-68
2022/11/15 02:56:40;;;;;;;30.05;15.10;;;9.20;99.90;;;;;;5093685;28;20144;-68
2022/11/15 03:00:00;;;;;;;25.60;14.55;;;9.20;99.90;;;;;;5092359;28;20056;-69
2022/11/15 03:02:48;;;;;;;22.38;12.98;;;9.20;99.90;;;;;;5069676;28;20032;-69
2022/11/15 03:05:34;;;;;;;22.00;11.98;;;9.20;99.90;;;;;;5072317;28;20068;-69
2022/11/15 03:08:11;;;;;;;22.02;11.98;;;9.20;99.90;;;;;;5072385;28;20021;-67
2022/11/15 03:10:49;;;;;;;21.52;11.95;;;9.30;99.90;;;;;;5092077;28;20024;-69
2022/11/15 03:13:23;;;;;;;25.42;12.63;;;9.30;99.90;;;;;;5091320;28;20035;-68
2022/11/15 03:16:09;;;;;;;24.35;12.77;;;9.30;99.90;;;;;;5092460;28;20380;-68
2022/11/15 03:18:43;;;;;;;19.88;11.35;;;9.30;99.90;;;;;;5092339;28;20031;-69
2022/11/15 03:21:11;;;;;;;24.48;12.90;;;9.30;99.90;;;;;;5091826;28;20115;-69
2022/11/15 03:23:39;;;;;;;25.05;13.18;;;9.30;99.90;;;;;;5076059;28;20477;-69
2022/11/15 03:26:11;;;;;;;23.98;13.15;;;9.30;99.90;;;;;;5071253;28;20120;-67
2022/11/15 03:28:51;;;;;;;24.63;13.60;;;9.30;99.90;;;;;;5072360;28;20032;-69
2022/11/15 03:34:09;;;;;;;25.83;13.10;;;9.40;99.90;;;;;;5071426;28;20048;-69
2022/11/15 03:36:35;;;;;;;23.08;12.18;;;9.40;99.90;;;;;;5072252;28;20024;-67
2022/11/15 03:39:06;;;;;;;24.20;12.43;;;9.40;99.90;;;;;;5071331;28;20016;-69
2022/11/15 03:41:45;;;;;;;24.30;12.98;;;9.40;99.90;;;;;;5080992;28;20052;-69
2022/11/15 03:44:18;;;;;;;25.50;14.52;;;9.50;99.90;;;;;;5091392;28;20507;-69
2022/11/15 03:46:55;;;;;;;24.58;14.18;;;9.50;99.90;;;;;;5091156;28;20024;-67
2022/11/15 03:49:34;;;;;;;24.15;13.18;;;9.50;99.90;;;;;;5086201;28;20481;-69
2022/11/15 03:52:02;;;;;;;27.77;14.30;;;9.60;99.90;;;;;;5089353;28;20048;-69
2022/11/15 03:54:28;;;;;;;29.25;13.82;;;9.60;99.90;;;;;;5090432;28;20039;-69
2022/11/15 03:56:54;;;;;;;24.55;12.27;;;9.60;99.90;;;;;;5091248;28;20032;-69
2022/11/15 03:59:19;;;;;;;24.08;13.25;;;9.60;99.90;;;;;;5084312;28;20116;-68
2022/11/15 04:01:45;;;;;;;24.30;13.50;;;9.70;99.90;;;;;;5070496;28;20174;-69
2022/11/15 04:04:11;;;;;;;24.23;12.80;;;9.70;99.90;;;;;;5070975;28;20537;-69
2022/11/15 04:06:36;;;;;;;22.90;13.00;;;9.70;99.90;;;;;;5078887;28;20027;-69
2022/11/15 04:09:02;;;;;;;23.17;13.05;;;9.70;99.90;;;;;;5090993;28;20031;-69
2022/11/15 04:11:27;;;;;;;25.65;13.48;;;9.80;99.90;;;;;;5090126;28;20118;-69
2022/11/15 04:13:53;;;;;;;27.48;15.13;;;9.80;99.90;;;;;;5088070;28;20456;-69
2022/11/15 04:16:19;;;;;;;29.50;15.70;;;9.80;99.90;;;;;;5089858;28;20125;-69
2022/11/15 04:18:44;;;;;;;29.63;15.75;;;9.90;99.90;;;;;;5091135;28;20344;-68
2022/11/15 04:24:12;;;;;;;31.27;16.88;;;9.90;99.90;;;;;;5091093;28;20043;-69
2022/11/15 04:26:38;;;;;;;29.75;15.10;;;10.00;99.90;;;;;;5090785;28;20091;-68
2022/11/15 04:31:47;;;;;;;32.85;16.17;;;10.00;99.90;;;;;;5082606;28;20055;-69
2022/11/15 04:34:14;;;;;;;34.45;16.92;;;10.00;99.90;;;;;;5070496;28;20745;-69
2022/11/15 04:39:23;;;;;;;33.85;17.65;;;10.10;99.90;;;;;;5070138;28;20051;-69
2022/11/15 04:41:49;;;;;;;30.33;15.93;;;10.10;99.90;;;;;;5070222;28;20021;-68
2022/11/15 04:44:16;;;;;;;29.50;15.52;;;10.10;99.90;;;;;;5068141;28;20031;-69
2022/11/15 04:46:41;;;;;;;29.50;15.35;;;10.10;99.90;;;;;;5070510;28;20016;-71
2022/11/15 04:49:07;;;;;;;25.17;11.95;;;10.10;99.90;;;;;;5079607;28;20411;-69
2022/11/15 04:51:32;;;;;;;26.02;13.25;;;10.10;99.90;;;;;;5088524;28;20106;-69
2022/11/15 04:53:58;;;;;;;26.83;12.60;;;10.20;99.90;;;;;;5088559;28;20039;-69
2022/11/15 04:56:23;;;;;;;23.17;12.82;;;10.20;99.90;;;;;;5089693;28;20016;-69
2022/11/15 04:58:49;;;;;;;21.20;12.30;;;10.20;99.90;;;;;;5087823;28;20032;-68
2022/11/15 05:01:16;;;;;;;21.23;11.88;;;10.20;99.90;;;;;;5088196;28;20020;-67
2022/11/15 05:06:27;;;;;;;24.00;12.50;;;10.30;99.90;;;;;;5091157;28;20162;-73
2022/11/15 05:08:53;;;;;;;23.58;12.40;;;10.20;99.90;;;;;;5092483;28;20477;-69
2022/11/15 05:11:20;;;;;;;27.85;15.60;;;10.20;99.90;;;;;;5091766;28;20084;-71
2022/11/15 05:13:46;;;;;;;28.75;16.02;;;10.20;99.90;;;;;;5092117;28;20116;-70
2022/11/15 05:16:11;;;;;;;34.85;17.80;;;10.30;99.90;;;;;;5091055;28;20028;-68
2022/11/15 05:18:40;;;;;;;32.88;16.58;;;10.30;99.90;;;;;;5091444;28;20426;-69
2022/11/15 05:21:07;;;;;;;29.63;15.73;;;10.30;99.90;;;;;;5090821;28;20024;-68
2022/11/15 05:23:33;;;;;;;29.25;15.90;;;10.40;99.90;;;;;;5091236;28;20024;-70
2022/11/15 05:25:59;;;;;;;29.88;15.07;;;10.40;99.90;;;;;;5089860;28;20115;-68
2022/11/15 05:28:25;;;;;;;39.38;18.38;;;10.50;99.90;;;;;;5091573;28;20055;-69
2022/11/15 05:30:51;;;;;;;33.38;18.60;;;10.50;99.90;;;;;;5091722;28;20488;-69
2022/11/15 05:33:18;;;;;;;32.28;16.67;;;10.50;99.90;;;;;;5091165;28;20043;-69
2022/11/15 05:35:50;;;;;;;37.95;18.55;;;10.50;99.90;;;;;;5091878;28;20473;-69
2022/11/15 05:38:16;;;;;;;31.30;16.20;;;10.60;99.90;;;;;;5089728;28;21462;-68
2022/11/15 05:40:42;;;;;;;25.55;14.63;;;10.60;99.90;;;;;;5091290;28;20473;-69
2022/11/15 05:43:09;;;;;;;32.28;14.60;;;10.60;99.90;;;;;;5090581;28;20020;-69
2022/11/15 05:45:36;;;;;;;30.95;14.95;;;10.70;99.90;;;;;;5090721;28;20074;-70
2022/11/15 05:48:06;;;;;;;31.10;15.45;;;10.70;99.90;;;;;;5091193;28;20042;-69
2022/11/15 05:50:33;;;;;;;27.42;15.55;;;10.70;99.90;;;;;;5071647;28;20028;-69
2022/11/15 05:53:01;;;;;;;28.50;16.35;;;10.70;99.90;;;;;;5070988;28;20024;-70
2022/11/15 05:55:26;;;;;;;31.42;16.88;;;10.70;99.90;;;;;;5069671;28;20028;-70
2022/11/15 05:57:52;;;;;;;33.92;16.88;;;10.70;99.90;;;;;;5078673;28;20388;-68
2022/11/15 06:00:18;;;;;;;36.40;18.23;;;10.70;99.90;;;;;;5092734;28;20028;-69
2022/11/15 06:02:43;;;;;;;30.48;16.30;;;10.80;99.90;;;;;;5095820;28;20024;-68
2022/11/15 06:05:09;;;;;;;32.08;16.70;;;10.80;99.90;;;;;;5094471;28;20027;-69
2022/11/15 06:07:34;;;;;;;36.10;16.63;;;10.70;99.90;;;;;;5093928;28;20044;-69
2022/11/15 06:10:00;;;;;;;26.90;15.00;;;10.80;99.90;;;;;;5095209;28;20024;-69
2022/11/15 06:12:26;;;;;;;32.38;16.10;;;10.80;99.90;;;;;;5094862;28;20028;-69
2022/11/15 06:14:51;;;;;;;28.88;14.93;;;10.80;99.90;;;;;;5092978;28;20026;-67
2022/11/15 06:17:17;;;;;;;27.77;15.15;;;10.80;99.90;;;;;;5089751;28;20403;-67
2022/11/15 06:19:43;;;;;;;32.25;17.25;;;10.90;99.90;;;;;;5092005;28;20103;-69
2022/11/15 06:22:09;;;;;;;31.05;16.10;;;10.80;99.90;;;;;;5093298;28;20032;-68
2022/11/15 06:24:34;;;;;;;30.88;14.60;;;10.90;99.90;;;;;;5094104;28;20020;-69
2022/11/15 06:27:00;;;;;;;31.88;16.17;;;10.90;99.90;;;;;;5094099;28;20051;-68
2022/11/15 06:29:26;;;;;;;27.35;15.27;;;10.90;99.90;;;;;;5094240;28;20411;-70
2022/11/15 06:31:52;;;;;;;31.95;16.10;;;10.90;99.90;;;;;;5094997;28;20017;-70
2022/11/15 06:34:18;;;;;;;30.52;16.00;;;10.90;99.90;;;;;;5095091;28;20024;-70
2022/11/15 06:36:43;;;;;;;33.30;16.45;;;10.90;99.90;;;;;;5094459;28;20069;-70
2022/11/15 06:39:09;;;;;;;29.40;15.48;;;10.90;99.90;;;;;;5094852;28;20054;-69
2022/11/15 06:41:35;;;;;;;29.85;15.27;;;10.90;99.90;;;;;;5094971;28;20020;-70
2022/11/15 06:44:01;;;;;;;34.33;16.42;;;10.90;99.90;;;;;;5094716;28;20028;-69
2022/11/15 06:46:27;;;;;;;30.08;15.07;;;11.00;99.90;;;;;;5094899;28;20023;-67
2022/11/15 06:48:53;;;;;;;28.35;14.52;;;11.00;99.90;;;;;;5094641;28;20024;-70
2022/11/15 06:51:19;;;;;;;27.92;12.70;;;11.00;99.90;;;;;;5093107;28;20472;-70
2022/11/15 06:53:45;;;;;;;28.52;13.63;;;11.00;99.90;;;;;;5093092;28;20032;-70
2022/11/15 06:56:10;;;;;;;28.50;14.88;;;11.00;99.90;;;;;;5092869;28;20027;-70
2022/11/15 06:58:36;;;;;;;32.15;17.60;;;11.00;99.90;;;;;;5094763;28;20055;-70
2022/11/15 07:01:05;;;;;;;29.35;16.13;;;11.00;99.90;;;;;;5094710;28;20043;-70
2022/11/15 07:03:31;;;;;;;28.33;14.63;;;11.00;99.90;;;;;;5093728;28;20646;-70
2022/11/15 07:05:57;;;;;;;32.25;17.35;;;11.00;99.90;;;;;;5094340;28;20047;-70
2022/11/15 07:08:26;;;;;;;34.63;18.50;;;11.00;99.90;;;;;;5094383;28;20016;-68
2022/11/15 07:10:52;;;;;;;36.22;18.88;;;11.10;99.90;;;;;;5097676;28;20028;-70
2022/11/15 07:13:17;;;;;;;32.33;17.38;;;11.00;99.90;;;;;;5097293;28;20048;-70
2022/11/15 07:15:43;;;;;;;28.88;15.32;;;11.00;99.90;;;;;;5093311;28;20024;-70
2022/11/15 07:18:09;;;;;;;27.13;14.45;;;11.00;99.90;;;;;;5092213;28;20388;-70
2022/11/15 07:20:34;;;;;;;25.75;14.27;;;11.00;99.90;;;;;;5094117;28;20055;-69
2022/11/15 07:23:04;;;;;;;23.52;13.93;;;11.00;99.90;;;;;;5094087;28;20081;-71
2022/11/15 07:25:30;;;;;;;23.95;12.30;;;11.00;99.90;;;;;;5106542;28;20084;-70
2022/11/15 07:27:59;;;;;;;27.67;14.13;;;11.10;99.90;;;;;;5109874;28;20435;-70
2022/11/15 07:30:26;;;;;;;26.45;14.68;;;11.10;99.90;;;;;;5093897;28;20102;-70
2022/11/15 07:32:59;;;;;;;27.92;15.20;;;11.10;99.90;;;;;;5091306;28;20540;-69
2022/11/15 07:35:26;;;;;;;25.65;13.85;;;11.10;99.90;;;;;;5092616;28;20031;-70
2022/11/15 07:38:00;;;;;;;22.30;13.10;;;11.10;99.90;;;;;;5094215;28;20388;-70
2022/11/15 07:40:27;;;;;;;26.63;14.60;;;11.10;99.90;;;;;;5091138;28;20084;-70
2022/11/15 07:43:03;;;;;;;32.30;16.33;;;11.10;99.90;;;;;;5092581;28;20028;-70
2022/11/15 07:45:29;;;;;;;25.80;14.48;;;11.10;99.90;;;;;;5092160;28;20155;-70
2022/11/15 07:47:55;;;;;;;33.60;16.58;;;11.10;99.90;;;;;;5093291;28;20095;-70
2022/11/15 07:50:22;;;;;;;29.88;15.90;;;11.20;99.90;;;;;;5092241;28;20052;-69
2022/11/15 07:52:56;;;;;;;30.65;15.23;;;11.10;99.90;;;;;;5092688;28;20484;-71
2022/11/15 07:55:23;;;;;;;23.55;13.55;;;11.20;99.90;;;;;;5092531;28;20020;-70
2022/11/15 07:57:49;;;;;;;30.70;16.20;;;11.10;99.90;;;;;;5093115;28;20024;-69
2022/11/15 08:00:15;;;;;;;36.35;18.73;;;11.20;99.90;;;;;;5091353;28;20536;-68
2022/11/15 08:02:41;;;;;;;28.73;15.98;;;11.20;99.90;;;;;;5093679;28;20020;-70
2022/11/15 08:05:06;;;;;;;32.70;17.02;;;11.20;99.90;;;;;;5093058;28;20027;-71
2022/11/15 08:07:32;;;;;;;30.83;16.25;;;11.20;99.90;;;;;;5091423;28;20483;-70
2022/11/15 08:09:58;;;;;;;27.42;14.38;;;11.20;99.90;;;;;;5093135;28;20020;-70
2022/11/15 08:12:24;;;;;;;26.10;14.02;;;11.20;99.90;;;;;;5092199;28;20101;-70
2022/11/15 08:14:50;;;;;;;27.67;15.25;;;11.20;99.90;;;;;;5091240;28;20410;-70
2022/11/15 08:17:15;;;;;;;30.50;16.15;;;11.30;99.90;;;;;;5092815;28;20024;-70
2022/11/15 08:19:41;;;;;;;26.88;16.05;;;11.30;99.90;;;;;;5092600;28;20025;-70
2022/11/15 08:22:07;;;;;;;25.48;14.50;;;11.20;99.90;;;;;;5092225;28;20073;-70
2022/11/15 08:24:33;;;;;;;26.38;15.32;;;11.30;99.90;;;;;;5093234;28;20016;-67
2022/11/15 08:26:59;;;;;;;27.77;14.02;;;11.30;99.90;;;;;;5092744;28;20507;-70
2022/11/15 08:29:25;;;;;;;27.70;14.57;;;11.30;99.90;;;;;;5092374;28;20020;-71
2022/11/15 08:31:50;;;;;;;27.63;15.75;;;11.40;99.90;;;;;;5092668;28;20020;-69
2022/11/15 08:34:16;;;;;;;29.92;14.88;;;11.40;99.90;;;;;;5092681;28;20024;-67
2022/11/15 08:36:42;;;;;;;29.27;15.25;;;11.50;99.90;;;;;;5091164;28;20020;-71
2022/11/15 08:39:11;;;;;;;32.33;17.10;;;11.50;99.90;;;;;;5092710;28;20035;-70
2022/11/15 08:41:37;;;;;;;26.65;15.15;;;11.60;99.90;;;;;;5091888;28;20020;-71
2022/11/15 08:44:03;;;;;;;32.28;16.15;;;11.60;99.90;;;;;;5092466;28;20019;-70
2022/11/15 08:46:30;;;;;;;24.17;13.43;;;11.50;99.90;;;;;;5092896;28;20322;-70
2022/11/15 08:48:55;;;;;;;24.35;13.40;;;11.50;99.90;;;;;;5090883;28;20028;-70
2022/11/15 08:51:21;;;;;;;25.40;13.10;;;11.40;99.90;;;;;;5091380;28;20123;-70
2022/11/15 08:53:46;;;;;;;22.08;12.65;;;11.40;99.90;;;;;;5092513;28;20039;-70
2022/11/15 08:56:14;;;;;;;24.75;13.57;;;11.40;99.90;;;;;;5091931;28;20024;-71
2022/11/15 08:58:40;;;;;;;19.63;12.90;;;11.40;99.90;;;;;;5092805;28;20107;-70
2022/11/15 09:01:06;;;;;;;26.38;13.95;;;11.40;99.90;;;;;;5092434;28;20044;-67
2022/11/15 09:03:32;;;;;;;24.48;13.40;;;11.50;99.90;;;;;;5091781;28;20106;-70
2022/11/15 09:05:59;;;;;;;28.70;15.38;;;11.60;99.90;;;;;;5092389;28;20103;-71
2022/11/15 09:08:29;;;;;;;29.75;15.18;;;11.60;99.90;;;;;;5091008;28;20024;-70
2022/11/15 09:10:54;;;;;;;27.45;16.13;;;11.60;99.90;;;;;;5091677;28;20100;-70
2022/11/15 09:13:20;;;;;;;28.17;15.38;;;11.60;99.90;;;;;;5089182;28;20430;-71
2022/11/15 09:15:45;;;;;;;29.52;15.05;;;11.70;99.90;;;;;;5089441;28;20020;-71
2022/11/15 09:18:11;;;;;;;25.35;14.18;;;11.70;99.90;;;;;;5088925;28;20020;-70
2022/11/15 09:20:36;;;;;;;24.75;13.98;;;11.80;99.90;;;;;;5091417;28;20028;-71
2022/11/15 09:23:03;;;;;;;27.20;14.95;;;11.80;99.90;;;;;;5089498;28;20057;-70
2022/11/15 09:25:30;;;;;;;23.95;13.45;;;11.90;99.90;;;;;;5074285;28;20100;-70
2022/11/15 09:27:56;;;;;;;23.23;13.15;;;11.90;99.90;;;;;;5087153;28;20043;-70
2022/11/15 09:30:24;;;;;;;21.40;10.68;;;12.00;99.90;;;;;;5092994;28;20110;-70
2022/11/15 09:32:49;;;;;;;24.23;11.32;;;12.00;99.90;;;;;;5077038;28;20090;-70
2022/11/15 09:35:16;;;;;;;18.77;10.02;;;12.00;99.90;;;;;;5095361;28;20941;-69
2022/11/15 09:37:41;;;;;;;20.83;9.77;;;12.00;99.90;;;;;;5094570;28;20039;-70
2022/11/15 09:40:12;;;;;;;18.92;9.80;;;12.00;99.90;;;;;;5094308;28;20099;-69
2022/11/15 09:42:44;;;;;;;22.48;8.82;;;12.10;99.90;;;;;;5094680;28;20413;-70
2022/11/15 09:45:09;;;;;;;;;;;12.10;99.90;;;;;;5095732;28;20021;-70
2022/11/15 09:47:53;;;;;;;19.42;8.80;;;12.10;99.90;;;;;;5094058;28;20360;-69
2022/11/15 09:50:38;;;;;;;17.75;9.98;;;12.10;99.90;;;;;;5095835;28;20027;-70
2022/11/15 09:53:04;;;;;;;16.67;9.07;;;12.20;99.90;;;;;;5094184;28;20059;-70
2022/11/15 09:55:45;;;;;;;20.63;9.07;;;12.20;99.90;;;;;;5093270;28;20472;-69
2022/11/15 09:58:19;;;;;;;;;;;12.20;99.90;;;;;;5094484;28;20211;-69
2022/11/15 10:00:48;;;;;;;18.00;8.98;;;12.20;99.90;;;;;;5095810;28;19954;-69
2022/11/15 10:03:28;;;;;;;16.88;9.25;;;12.30;99.90;;;;;;5115829;28;20024;-68
2022/11/15 10:05:59;;;;;;;14.80;9.27;;;12.30;99.90;;;;;;5112665;28;20020;-69
2022/11/15 10:08:46;;;;;;;15.25;7.13;;;12.40;99.90;;;;;;5115327;28;20027;-69
2022/11/15 10:11:23;;;;;;;15.63;7.50;;;12.50;99.90;;;;;;5088089;28;20038;-68
2022/11/15 10:13:51;;;;;;;13.60;7.68;;;12.60;99.90;;;;;;5079642;28;20369;-67
2022/11/15 10:16:29;;;;;;;11.77;7.40;;;12.60;99.90;;;;;;5092968;28;20020;-69
2022/11/15 10:19:10;;;;;;;13.65;7.53;;;12.60;99.90;;;;;;5094347;28;20059;-67
2022/11/15 10:21:45;;;;;;;11.68;7.07;;;12.70;99.90;;;;;;5090547;28;20046;-68
2022/11/15 10:24:12;;;;;;;13.48;6.50;;;12.70;99.90;;;;;;5093271;28;20028;-67
2022/11/15 10:26:39;;;;;;;12.55;7.05;;;12.90;99.90;;;;;;5093431;28;20501;-68
2022/11/15 10:29:05;;;;;;;11.43;6.90;;;12.90;99.90;;;;;;5092132;28;20150;-70
2022/11/15 10:31:30;;;;;;;13.48;7.90;;;13.00;99.90;;;;;;5091452;28;20084;-70
2022/11/15 10:34:18;;;;;;;11.13;6.45;;;13.00;99.90;;;;;;5090046;28;20032;-66
2022/11/15 10:36:55;;;;;;;12.30;6.57;;;13.00;99.90;;;;;;5091797;28;20488;-66
2022/11/15 10:39:20;;;;;;;11.07;5.80;;;13.00;99.90;;;;;;5075402;28;20040;-68
2022/11/15 10:41:46;;;;;;;9.75;6.07;;;13.00;99.90;;;;;;5090430;28;20025;-68
2022/11/15 10:44:24;;;;;;;9.65;5.05;;;12.90;99.90;;;;;;5091287;28;20016;-69
2022/11/15 10:46:56;;;;;;;7.88;4.75;;;12.90;99.90;;;;;;5091218;28;20380;-66
2022/11/15 10:49:30;;;;;;;8.73;5.47;;;13.00;99.90;;;;;;5091146;28;20445;-68
2022/11/15 10:52:19;;;;;;;8.80;5.45;;;13.00;99.90;;;;;;5081868;28;20054;-67
2022/11/15 10:54:55;;;;;;;7.78;4.82;;;13.00;99.90;;;;;;5090697;28;20032;-68
2022/11/15 10:57:23;;;;;;;6.72;4.32;;;13.00;99.90;;;;;;5092498;28;20028;-67
2022/11/15 11:00:25;;;;;;;8.38;4.28;;;13.00;99.90;;;;;;5091843;28;20091;-67
2022/11/15 11:03:27;;;;;;;5.93;3.67;;;13.00;99.90;;;;;;5086434;28;20119;-67
2022/11/15 11:06:05;;;;;;;6.28;3.35;;;13.00;99.90;;;;;;5079603;28;20100;-67
2022/11/15 11:08:31;;;;;;;6.38;3.90;;;13.00;99.90;;;;;;5087412;28;20460;-68
2022/11/15 11:10:59;;;;;;;4.57;2.90;;;13.00;99.90;;;;;;5082337;28;20028;-67
2022/11/15 11:13:30;;;;;;;10.63;5.65;;;13.00;99.90;;;;;;5070465;28;20036;-67
2022/11/15 11:16:02;;;;;;;22.27;9.68;;;13.00;99.90;;;;;;5071971;28;20028;-68
2022/11/15 11:18:49;;;;;;;15.25;7.55;;;12.90;99.90;;;;;;5071248;28;20060;-70
2022/11/15 11:21:40;;;;;;;7.00;4.50;;;12.90;99.90;;;;;;5075575;28;20433;-68
2022/11/15 11:24:09;;;;;;;4.57;2.70;;;12.90;99.90;;;;;;5091318;28;20020;-68
2022/11/15 11:26:55;;;;;;;6.68;3.38;;;12.80;99.90;;;;;;5054784;28;1060949;-68
2022/11/15 11:29:35;;;;;;;6.60;3.10;;;12.70;99.90;;;;;;5093251;28;20032;-68
2022/11/15 11:32:34;;;;;;;6.68;3.53;;;12.60;99.90;;;;;;5081701;28;20044;-68
2022/11/15 11:35:12;;;;;;;9.32;2.83;;;12.50;99.90;;;;;;5091417;28;20032;-68
2022/11/15 11:37:57;;;;;;;5.78;3.17;;;12.50;99.90;;;;;;5092762;28;20093;-68
2022/11/15 11:40:40;;;;;;;4.47;2.55;;;12.40;99.90;;;;;;5091043;28;20029;-69
2022/11/15 11:43:22;;;;;;;6.18;2.95;;;12.30;99.90;;;;;;5091391;28;20119;-68
2022/11/15 11:46:14;;;;;;;6.30;2.75;;;12.30;99.90;;;;;;5091897;28;20028;-70
2022/11/15 11:48:46;;;;;;;4.90;2.53;;;12.30;99.90;;;;;;5066777;28;20202;-71
2022/11/15 11:51:28;;;;;;;3.95;2.42;;;12.20;99.90;;;;;;5072370;28;20554;-71
2022/11/15 11:54:19;;;;;;;4.40;2.45;;;12.30;99.90;;;;;;5071656;28;20099;-70
2022/11/15 11:56:45;;;;;;;6.03;2.63;;;12.20;99.90;;;;;;5072329;28;20020;-69
2022/11/15 11:59:33;;;;;;;5.88;2.78;;;12.20;99.90;;;;;;5071929;28;20020;-71
2022/11/15 12:02:11;;;;;;;8.40;3.10;;;12.20;99.90;;;;;;5070072;28;20028;-71
2022/11/15 12:04:42;;;;;;;5.93;2.88;;;12.30;99.90;;;;;;5074301;28;20020;-72
2022/11/15 12:07:21;;;;;;;6.85;2.63;;;12.30;99.90;;;;;;5071549;28;20032;-69
2022/11/15 12:10:01;;;;;;;6.35;2.55;;;12.30;99.90;;;;;;5070418;28;20028;-68
2022/11/15 12:12:43;;;;;;;4.38;1.92;;;12.30;99.90;;;;;;5072464;28;20050;-70
2022/11/15 12:15:08;;;;;;;5.57;1.60;;;12.30;99.70;;;;;;5084413;28;20138;-75
2022/11/15 12:17:34;;;;;;;5.22;2.22;;;12.20;99.90;;;;;;5070404;28;20206;-74
2022/11/15 12:20:14;;;;;;;5.45;2.08;;;12.20;99.90;;;;;;5069930;28;20016;-73
2022/11/15 12:22:46;;;;;;;4.88;1.90;;;12.30;99.90;;;;;;5082961;28;20020;-80
2022/11/15 12:25:28;;;;;;;4.20;1.70;;;12.30;99.90;;;;;;5073489;28;20063;-76
2022/11/15 12:28:19;;;;;;;2.90;1.52;;;12.30;99.20;;;;;;5072242;28;20111;-80
2022/11/15 12:31:00;;;;;;;3.63;1.73;;;12.30;99.20;;;;;;5073824;28;20020;-79
2022/11/15 12:33:46;;;;;;;4.78;1.50;;;12.30;98.90;;;;;;5100392;28;20051;-79
2022/11/15 12:36:21;;;;;;;3.88;1.77;;;12.30;98.80;;;;;;5077847;28;20024;-69
2022/11/15 12:38:54;;;;;;;5.07;1.40;;;12.30;98.60;;;;;;5081651;28;20025;-77
2022/11/15 12:41:22;;;;;;;5.10;1.80;;;12.30;98.70;;;;;;5086803;28;20109;-81
2022/11/15 12:43:49;;;;;;;1.92;1.02;;;12.40;98.70;;;;;;5092747;28;20032;-80
2022/11/15 12:46:29;;;;;;;1.67;1.13;;;12.40;98.80;;;;;;5092326;28;20012;-77
2022/11/15 12:48:56;;;;;;;3.65;1.05;;;12.40;98.70;;;;;;5092640;28;20055;-81
2022/11/15 12:51:47;;;;;;;2.60;1.30;;;12.40;98.80;;;;;;5092675;28;20028;-80
2022/11/15 12:54:22;;;;;;;3.65;1.40;;;12.40;98.70;;;;;;5086550;28;20040;-79
2022/11/15 12:57:03;;;;;;;2.90;1.10;;;12.40;98.80;;;;;;5091493;28;20456;-77
2022/11/15 13:00:04;;;;;;;2.28;1.10;;;12.40;98.90;;;;;;5090968;28;20066;-80
2022/11/15 13:02:39;;;;;;;2.17;1.00;;;12.40;98.50;;;;;;5091305;28;20024;-80
2022/11/15 13:05:18;;;;;;;2.55;1.10;;;12.50;98.00;;;;;;5092282;28;20024;-81
2022/11/15 13:07:44;;;;;;;1.58;0.95;;;12.50;98.10;;;;;;5091755;28;20021;-83